sensor_id;sensor_type;location;lat;lon;timestamp;P1;durP1;ratioP1;P2;durP2;ratioP2
26540;SDS011;14206;50.202;10.948;2023-07-31T00:01:30;1.45;;;1.00;;
26540;SDS011;14206;50.202;10.948;2023-07-31T00:03:57;1.52;;;1.10;;
26540;SDS011;14206;50.202;10.948;2023-07-31T00:06:25;1.85;;;1.00;;
26540;SDS011;14206;50.202;10.948;2023-07-31T00:08:51;1.08;;;0.90;;
26540;SDS011;14206;50.202;10.948;2023-07-31T00:11:18;1.20;;;0.60;;
26540;SDS011;14206;50.202;10.948;2023-07-31T00:13:45;1.17;;;0.90;;
26540;SDS011;14206;50.202;10.948;2023-07-31T00:16:12;1.73;;;0.85;;
26540;SDS011;14206;50.202;10.948;2023-07-31T00:18:39;1.35;;;0.70;;
26540;SDS011;14206;50.202;10.948;2023-07-31T00:21:06;1.20;;;0.80;;
26540;SDS011;14206;50.202;10.948;2023-07-31T00:23:39;1.25;;;0.80;;
26540;SDS011;14206;50.202;10.948;2023-07-31T00:26:06;1.50;;;0.77;;
26540;SDS011;14206;50.202;10.948;2023-07-31T00:28:33;1.63;;;0.90;;
26540;SDS011;14206;50.202;10.948;2023-07-31T00:31:00;0.60;;;0.60;;
26540;SDS011;14206;50.202;10.948;2023-07-31T00:33:28;0.73;;;0.50;;
26540;SDS011;14206;50.202;10.948;2023-07-31T00:35:58;0.57;;;0.57;;
26540;SDS011;14206;50.202;10.948;2023-07-31T00:38:25;1.15;;;0.70;;
26540;SDS011;14206;50.202;10.948;2023-07-31T00:40:51;0.63;;;0.55;;
26540;SDS011;14206;50.202;10.948;2023-07-31T00:43:18;0.50;;;0.50;;
26540;SDS011;14206;50.202;10.948;2023-07-31T00:45:45;0.90;;;0.50;;
26540;SDS011;14206;50.202;10.948;2023-07-31T00:48:12;1.52;;;0.60;;
26540;SDS011;14206;50.202;10.948;2023-07-31T00:50:39;1.15;;;0.50;;
26540;SDS011;14206;50.202;10.948;2023-07-31T00:53:07;0.75;;;0.60;;
26540;SDS011;14206;50.202;10.948;2023-07-31T00:55:34;1.38;;;0.60;;
26540;SDS011;14206;50.202;10.948;2023-07-31T00:58:01;1.17;;;0.80;;
26540;SDS011;14206;50.202;10.948;2023-07-31T01:00:28;0.60;;;0.55;;
26540;SDS011;14206;50.202;10.948;2023-07-31T01:02:55;0.57;;;0.57;;
26540;SDS011;14206;50.202;10.948;2023-07-31T01:05:29;0.73;;;0.60;;
26540;SDS011;14206;50.202;10.948;2023-07-31T01:08:24;0.80;;;0.60;;
26540;SDS011;14206;50.202;10.948;2023-07-31T01:11:09;1.08;;;0.80;;
26540;SDS011;14206;50.202;10.948;2023-07-31T01:13:44;0.98;;;0.40;;
26540;SDS011;14206;50.202;10.948;2023-07-31T01:16:12;1.42;;;0.63;;
26540;SDS011;14206;50.202;10.948;2023-07-31T01:18:38;0.85;;;0.70;;
26540;SDS011;14206;50.202;10.948;2023-07-31T01:26:49;0.73;;;0.50;;
26540;SDS011;14206;50.202;10.948;2023-07-31T01:29:43;1.10;;;0.63;;
26540;SDS011;14206;50.202;10.948;2023-07-31T01:32:12;0.60;;;0.60;;
26540;SDS011;14206;50.202;10.948;2023-07-31T01:34:46;1.20;;;0.57;;
26540;SDS011;14206;50.202;10.948;2023-07-31T01:37:14;1.47;;;0.70;;
26540;SDS011;14206;50.202;10.948;2023-07-31T01:39:42;1.02;;;0.70;;
26540;SDS011;14206;50.202;10.948;2023-07-31T01:42:09;0.88;;;0.70;;
26540;SDS011;14206;50.202;10.948;2023-07-31T01:44:35;0.80;;;0.40;;
26540;SDS011;14206;50.202;10.948;2023-07-31T01:47:04;0.63;;;0.60;;
26540;SDS011;14206;50.202;10.948;2023-07-31T01:49:31;0.60;;;0.60;;
26540;SDS011;14206;50.202;10.948;2023-07-31T01:51:59;1.88;;;0.70;;
26540;SDS011;14206;50.202;10.948;2023-07-31T01:54:26;1.13;;;0.60;;
26540;SDS011;14206;50.202;10.948;2023-07-31T01:56:53;1.08;;;0.65;;
26540;SDS011;14206;50.202;10.948;2023-07-31T01:59:20;0.75;;;0.50;;
26540;SDS011;14206;50.202;10.948;2023-07-31T02:01:47;0.60;;;0.50;;
26540;SDS011;14206;50.202;10.948;2023-07-31T02:04:15;0.73;;;0.50;;
26540;SDS011;14206;50.202;10.948;2023-07-31T02:06:43;0.63;;;0.50;;
26540;SDS011;14206;50.202;10.948;2023-07-31T02:09:10;0.50;;;0.50;;
26540;SDS011;14206;50.202;10.948;2023-07-31T02:11:37;0.40;;;0.40;;
26540;SDS011;14206;50.202;10.948;2023-07-31T02:14:04;0.52;;;0.50;;
26540;SDS011;14206;50.202;10.948;2023-07-31T02:16:30;0.75;;;0.60;;
26540;SDS011;14206;50.202;10.948;2023-07-31T02:18:57;1.58;;;0.70;;
26540;SDS011;14206;50.202;10.948;2023-07-31T02:21:25;1.15;;;0.73;;
26540;SDS011;14206;50.202;10.948;2023-07-31T02:23:51;0.75;;;0.60;;
26540;SDS011;14206;50.202;10.948;2023-07-31T02:26:18;0.50;;;0.50;;
26540;SDS011;14206;50.202;10.948;2023-07-31T02:28:45;0.75;;;0.70;;
26540;SDS011;14206;50.202;10.948;2023-07-31T02:31:12;0.93;;;0.80;;
26540;SDS011;14206;50.202;10.948;2023-07-31T02:33:39;0.68;;;0.68;;
26540;SDS011;14206;50.202;10.948;2023-07-31T02:36:06;0.73;;;0.68;;
26540;SDS011;14206;50.202;10.948;2023-07-31T02:38:33;1.08;;;0.70;;
26540;SDS011;14206;50.202;10.948;2023-07-31T02:41:00;0.70;;;0.50;;
26540;SDS011;14206;50.202;10.948;2023-07-31T02:43:26;0.73;;;0.73;;
26540;SDS011;14206;50.202;10.948;2023-07-31T02:45:53;0.95;;;0.88;;
26540;SDS011;14206;50.202;10.948;2023-07-31T02:48:22;2.42;;;1.00;;
26540;SDS011;14206;50.202;10.948;2023-07-31T02:50:49;1.35;;;0.95;;
26540;SDS011;14206;50.202;10.948;2023-07-31T02:53:16;0.85;;;0.77;;
26540;SDS011;14206;50.202;10.948;2023-07-31T02:55:43;0.80;;;0.80;;
26540;SDS011;14206;50.202;10.948;2023-07-31T02:58:10;1.67;;;1.00;;
26540;SDS011;14206;50.202;10.948;2023-07-31T03:00:41;2.00;;;0.90;;
26540;SDS011;14206;50.202;10.948;2023-07-31T03:03:12;1.77;;;0.93;;
26540;SDS011;14206;50.202;10.948;2023-07-31T03:05:39;2.15;;;1.02;;
26540;SDS011;14206;50.202;10.948;2023-07-31T03:08:06;0.90;;;0.70;;
26540;SDS011;14206;50.202;10.948;2023-07-31T03:10:33;0.68;;;0.60;;
26540;SDS011;14206;50.202;10.948;2023-07-31T03:12:59;0.80;;;0.70;;
26540;SDS011;14206;50.202;10.948;2023-07-31T03:15:26;0.50;;;0.50;;
26540;SDS011;14206;50.202;10.948;2023-07-31T03:17:53;0.60;;;0.60;;
26540;SDS011;14206;50.202;10.948;2023-07-31T03:20:20;1.50;;;0.80;;
26540;SDS011;14206;50.202;10.948;2023-07-31T03:22:47;0.57;;;0.57;;
26540;SDS011;14206;50.202;10.948;2023-07-31T03:25:14;1.35;;;0.80;;
26540;SDS011;14206;50.202;10.948;2023-07-31T03:27:41;0.70;;;0.50;;
26540;SDS011;14206;50.202;10.948;2023-07-31T03:30:08;0.85;;;0.63;;
26540;SDS011;14206;50.202;10.948;2023-07-31T03:32:35;1.60;;;0.95;;
26540;SDS011;14206;50.202;10.948;2023-07-31T03:35:03;1.55;;;0.80;;
26540;SDS011;14206;50.202;10.948;2023-07-31T03:37:31;0.77;;;0.77;;
26540;SDS011;14206;50.202;10.948;2023-07-31T03:39:58;1.08;;;0.70;;
26540;SDS011;14206;50.202;10.948;2023-07-31T03:42:25;2.83;;;1.40;;
26540;SDS011;14206;50.202;10.948;2023-07-31T03:44:53;1.52;;;1.10;;
26540;SDS011;14206;50.202;10.948;2023-07-31T03:47:20;3.70;;;1.83;;
26540;SDS011;14206;50.202;10.948;2023-07-31T03:49:47;2.47;;;1.20;;
26540;SDS011;14206;50.202;10.948;2023-07-31T03:52:14;1.70;;;1.00;;
26540;SDS011;14206;50.202;10.948;2023-07-31T03:54:41;2.88;;;1.30;;
26540;SDS011;14206;50.202;10.948;2023-07-31T03:57:07;2.65;;;1.20;;
26540;SDS011;14206;50.202;10.948;2023-07-31T03:59:34;4.30;;;1.55;;
26540;SDS011;14206;50.202;10.948;2023-07-31T04:02:01;3.13;;;1.30;;
26540;SDS011;14206;50.202;10.948;2023-07-31T04:04:28;2.80;;;1.35;;
26540;SDS011;14206;50.202;10.948;2023-07-31T04:06:55;2.47;;;1.30;;
26540;SDS011;14206;50.202;10.948;2023-07-31T04:09:22;4.72;;;1.58;;
26540;SDS011;14206;50.202;10.948;2023-07-31T04:11:49;4.05;;;1.38;;
26540;SDS011;14206;50.202;10.948;2023-07-31T04:14:15;2.70;;;1.40;;
26540;SDS011;14206;50.202;10.948;2023-07-31T04:16:43;3.60;;;1.50;;
26540;SDS011;14206;50.202;10.948;2023-07-31T04:19:10;2.22;;;1.55;;
26540;SDS011;14206;50.202;10.948;2023-07-31T04:21:37;1.98;;;1.35;;
26540;SDS011;14206;50.202;10.948;2023-07-31T04:24:04;3.05;;;1.33;;
26540;SDS011;14206;50.202;10.948;2023-07-31T04:26:31;3.72;;;1.40;;
26540;SDS011;14206;50.202;10.948;2023-07-31T04:28:58;4.28;;;1.50;;
26540;SDS011;14206;50.202;10.948;2023-07-31T04:31:25;2.80;;;1.50;;
26540;SDS011;14206;50.202;10.948;2023-07-31T04:33:52;2.78;;;1.30;;
26540;SDS011;14206;50.202;10.948;2023-07-31T04:36:18;2.63;;;1.30;;
26540;SDS011;14206;50.202;10.948;2023-07-31T04:38:58;3.50;;;1.40;;
26540;SDS011;14206;50.202;10.948;2023-07-31T04:41:25;1.90;;;1.27;;
26540;SDS011;14206;50.202;10.948;2023-07-31T04:43:52;2.00;;;1.40;;
26540;SDS011;14206;50.202;10.948;2023-07-31T04:46:19;3.05;;;1.45;;
26540;SDS011;14206;50.202;10.948;2023-07-31T04:48:46;1.83;;;1.40;;
26540;SDS011;14206;50.202;10.948;2023-07-31T04:51:13;2.58;;;1.58;;
26540;SDS011;14206;50.202;10.948;2023-07-31T04:53:40;2.72;;;1.30;;
26540;SDS011;14206;50.202;10.948;2023-07-31T04:56:06;2.60;;;1.40;;
26540;SDS011;14206;50.202;10.948;2023-07-31T04:58:33;2.38;;;1.60;;
26540;SDS011;14206;50.202;10.948;2023-07-31T05:01:00;3.20;;;1.20;;
26540;SDS011;14206;50.202;10.948;2023-07-31T05:03:27;2.67;;;1.50;;
26540;SDS011;14206;50.202;10.948;2023-07-31T05:05:54;1.38;;;1.00;;
26540;SDS011;14206;50.202;10.948;2023-07-31T05:08:21;2.22;;;1.30;;
26540;SDS011;14206;50.202;10.948;2023-07-31T05:10:48;2.65;;;1.38;;
26540;SDS011;14206;50.202;10.948;2023-07-31T05:13:15;2.20;;;1.48;;
26540;SDS011;14206;50.202;10.948;2023-07-31T05:15:42;2.50;;;1.17;;
26540;SDS011;14206;50.202;10.948;2023-07-31T05:18:09;3.97;;;1.40;;
26540;SDS011;14206;50.202;10.948;2023-07-31T05:20:36;2.03;;;1.30;;
26540;SDS011;14206;50.202;10.948;2023-07-31T05:23:03;2.78;;;1.50;;
26540;SDS011;14206;50.202;10.948;2023-07-31T05:25:29;2.08;;;1.33;;
26540;SDS011;14206;50.202;10.948;2023-07-31T05:27:56;2.47;;;1.40;;
26540;SDS011;14206;50.202;10.948;2023-07-31T05:30:23;2.22;;;1.25;;
26540;SDS011;14206;50.202;10.948;2023-07-31T05:32:50;2.95;;;1.58;;
26540;SDS011;14206;50.202;10.948;2023-07-31T05:35:17;1.35;;;1.00;;
26540;SDS011;14206;50.202;10.948;2023-07-31T05:37:44;1.92;;;1.05;;
26540;SDS011;14206;50.202;10.948;2023-07-31T05:40:11;1.65;;;1.10;;
26540;SDS011;14206;50.202;10.948;2023-07-31T05:42:46;1.45;;;1.10;;
26540;SDS011;14206;50.202;10.948;2023-07-31T05:45:13;1.83;;;0.90;;
26540;SDS011;14206;50.202;10.948;2023-07-31T05:47:40;1.77;;;1.30;;
26540;SDS011;14206;50.202;10.948;2023-07-31T05:50:07;3.90;;;1.80;;
26540;SDS011;14206;50.202;10.948;2023-07-31T05:52:34;1.90;;;1.55;;
26540;SDS011;14206;50.202;10.948;2023-07-31T05:55:01;3.42;;;1.52;;
26540;SDS011;14206;50.202;10.948;2023-07-31T05:57:29;3.20;;;1.70;;
26540;SDS011;14206;50.202;10.948;2023-07-31T05:59:56;2.33;;;1.60;;
26540;SDS011;14206;50.202;10.948;2023-07-31T06:02:23;3.92;;;1.92;;
26540;SDS011;14206;50.202;10.948;2023-07-31T06:04:50;2.60;;;1.60;;
26540;SDS011;14206;50.202;10.948;2023-07-31T06:07:17;4.20;;;1.90;;
26540;SDS011;14206;50.202;10.948;2023-07-31T06:09:45;3.38;;;1.67;;
26540;SDS011;14206;50.202;10.948;2023-07-31T06:12:12;6.35;;;2.05;;
26540;SDS011;14206;50.202;10.948;2023-07-31T06:14:39;2.35;;;1.60;;
26540;SDS011;14206;50.202;10.948;2023-07-31T06:17:06;5.47;;;1.90;;
26540;SDS011;14206;50.202;10.948;2023-07-31T06:19:33;4.28;;;1.88;;
26540;SDS011;14206;50.202;10.948;2023-07-31T06:21:59;5.03;;;1.95;;
26540;SDS011;14206;50.202;10.948;2023-07-31T06:24:27;3.83;;;1.90;;
26540;SDS011;14206;50.202;10.948;2023-07-31T06:26:55;2.50;;;1.70;;
26540;SDS011;14206;50.202;10.948;2023-07-31T06:29:23;3.20;;;1.75;;
26540;SDS011;14206;50.202;10.948;2023-07-31T06:31:50;3.22;;;1.90;;
26540;SDS011;14206;50.202;10.948;2023-07-31T06:34:17;2.83;;;1.75;;
26540;SDS011;14206;50.202;10.948;2023-07-31T06:36:44;4.93;;;1.60;;
26540;SDS011;14206;50.202;10.948;2023-07-31T06:39:11;3.22;;;1.50;;
26540;SDS011;14206;50.202;10.948;2023-07-31T06:41:38;3.58;;;1.67;;
26540;SDS011;14206;50.202;10.948;2023-07-31T06:44:09;4.53;;;1.70;;
26540;SDS011;14206;50.202;10.948;2023-07-31T06:46:36;2.83;;;1.50;;
26540;SDS011;14206;50.202;10.948;2023-07-31T06:49:04;3.83;;;1.88;;
26540;SDS011;14206;50.202;10.948;2023-07-31T06:51:31;3.90;;;1.63;;
26540;SDS011;14206;50.202;10.948;2023-07-31T06:53:58;4.57;;;1.80;;
26540;SDS011;14206;50.202;10.948;2023-07-31T06:56:24;4.60;;;1.90;;
26540;SDS011;14206;50.202;10.948;2023-07-31T06:58:52;4.07;;;1.98;;
26540;SDS011;14206;50.202;10.948;2023-07-31T07:01:19;3.65;;;2.00;;
26540;SDS011;14206;50.202;10.948;2023-07-31T07:03:46;6.65;;;1.80;;
26540;SDS011;14206;50.202;10.948;2023-07-31T07:06:13;4.80;;;2.17;;
26540;SDS011;14206;50.202;10.948;2023-07-31T07:08:40;4.13;;;2.00;;
26540;SDS011;14206;50.202;10.948;2023-07-31T07:11:06;4.68;;;1.90;;
26540;SDS011;14206;50.202;10.948;2023-07-31T07:13:34;3.33;;;2.03;;
26540;SDS011;14206;50.202;10.948;2023-07-31T07:16:03;4.57;;;1.92;;
26540;SDS011;14206;50.202;10.948;2023-07-31T07:18:30;5.15;;;2.20;;
26540;SDS011;14206;50.202;10.948;2023-07-31T07:20:57;2.92;;;1.67;;
26540;SDS011;14206;50.202;10.948;2023-07-31T07:23:30;3.85;;;2.03;;
26540;SDS011;14206;50.202;10.948;2023-07-31T07:25:57;4.18;;;1.85;;
26540;SDS011;14206;50.202;10.948;2023-07-31T07:28:24;4.55;;;1.95;;
26540;SDS011;14206;50.202;10.948;2023-07-31T07:30:54;3.78;;;2.78;;
26540;SDS011;14206;50.202;10.948;2023-07-31T07:33:21;3.38;;;1.58;;
26540;SDS011;14206;50.202;10.948;2023-07-31T07:35:48;4.63;;;2.08;;
26540;SDS011;14206;50.202;10.948;2023-07-31T07:38:15;4.55;;;2.03;;
26540;SDS011;14206;50.202;10.948;2023-07-31T07:40:42;4.75;;;2.03;;
26540;SDS011;14206;50.202;10.948;2023-07-31T07:43:09;3.75;;;2.17;;
26540;SDS011;14206;50.202;10.948;2023-07-31T07:45:35;5.20;;;1.90;;
26540;SDS011;14206;50.202;10.948;2023-07-31T07:48:02;4.45;;;2.15;;
26540;SDS011;14206;50.202;10.948;2023-07-31T07:50:29;4.30;;;1.92;;
26540;SDS011;14206;50.202;10.948;2023-07-31T07:52:57;3.22;;;1.92;;
26540;SDS011;14206;50.202;10.948;2023-07-31T07:55:24;4.30;;;1.98;;
26540;SDS011;14206;50.202;10.948;2023-07-31T07:57:51;4.05;;;2.08;;
26540;SDS011;14206;50.202;10.948;2023-07-31T08:00:18;5.07;;;1.98;;
26540;SDS011;14206;50.202;10.948;2023-07-31T08:02:47;6.20;;;1.88;;
26540;SDS011;14206;50.202;10.948;2023-07-31T08:05:14;3.60;;;2.33;;
26540;SDS011;14206;50.202;10.948;2023-07-31T08:07:41;3.42;;;2.28;;
26540;SDS011;14206;50.202;10.948;2023-07-31T08:10:08;5.47;;;2.28;;
26540;SDS011;14206;50.202;10.948;2023-07-31T08:12:35;4.35;;;2.10;;
26540;SDS011;14206;50.202;10.948;2023-07-31T08:15:02;3.70;;;1.90;;
26540;SDS011;14206;50.202;10.948;2023-07-31T08:17:29;4.15;;;2.15;;
26540;SDS011;14206;50.202;10.948;2023-07-31T08:19:56;4.10;;;1.90;;
26540;SDS011;14206;50.202;10.948;2023-07-31T08:22:24;5.15;;;2.15;;
26540;SDS011;14206;50.202;10.948;2023-07-31T08:24:52;3.15;;;1.88;;
26540;SDS011;14206;50.202;10.948;2023-07-31T08:27:18;4.07;;;2.00;;
26540;SDS011;14206;50.202;10.948;2023-07-31T08:29:46;4.80;;;1.98;;
26540;SDS011;14206;50.202;10.948;2023-07-31T08:32:13;3.20;;;1.83;;
26540;SDS011;14206;50.202;10.948;2023-07-31T08:34:40;4.97;;;1.90;;
26540;SDS011;14206;50.202;10.948;2023-07-31T08:37:08;4.05;;;2.10;;
26540;SDS011;14206;50.202;10.948;2023-07-31T08:39:35;3.85;;;2.05;;
26540;SDS011;14206;50.202;10.948;2023-07-31T08:42:02;4.30;;;1.95;;
26540;SDS011;14206;50.202;10.948;2023-07-31T08:44:29;3.90;;;1.70;;
26540;SDS011;14206;50.202;10.948;2023-07-31T08:46:58;2.97;;;1.88;;
26540;SDS011;14206;50.202;10.948;2023-07-31T08:49:25;5.15;;;2.13;;
26540;SDS011;14206;50.202;10.948;2023-07-31T08:51:53;2.95;;;2.00;;
26540;SDS011;14206;50.202;10.948;2023-07-31T08:54:21;4.78;;;2.10;;
26540;SDS011;14206;50.202;10.948;2023-07-31T08:56:48;3.97;;;2.05;;
26540;SDS011;14206;50.202;10.948;2023-07-31T08:59:16;4.07;;;2.15;;
26540;SDS011;14206;50.202;10.948;2023-07-31T09:01:47;5.78;;;2.40;;
26540;SDS011;14206;50.202;10.948;2023-07-31T09:04:18;3.63;;;1.80;;
26540;SDS011;14206;50.202;10.948;2023-07-31T09:06:47;4.88;;;2.33;;
26540;SDS011;14206;50.202;10.948;2023-07-31T09:09:15;3.80;;;2.28;;
26540;SDS011;14206;50.202;10.948;2023-07-31T09:11:42;3.72;;;2.10;;
26540;SDS011;14206;50.202;10.948;2023-07-31T09:14:09;6.28;;;2.13;;
26540;SDS011;14206;50.202;10.948;2023-07-31T09:16:43;3.92;;;2.00;;
26540;SDS011;14206;50.202;10.948;2023-07-31T09:19:26;3.38;;;1.80;;
26540;SDS011;14206;50.202;10.948;2023-07-31T09:22:03;3.78;;;1.80;;
26540;SDS011;14206;50.202;10.948;2023-07-31T09:24:32;5.18;;;2.10;;
26540;SDS011;14206;50.202;10.948;2023-07-31T09:27:00;3.20;;;1.73;;
26540;SDS011;14206;50.202;10.948;2023-07-31T09:29:28;4.53;;;2.20;;
26540;SDS011;14206;50.202;10.948;2023-07-31T09:31:56;5.53;;;2.05;;
26540;SDS011;14206;50.202;10.948;2023-07-31T09:34:29;2.45;;;1.58;;
26540;SDS011;14206;50.202;10.948;2023-07-31T09:36:58;5.05;;;2.33;;
26540;SDS011;14206;50.202;10.948;2023-07-31T09:39:27;2.67;;;1.70;;
26540;SDS011;14206;50.202;10.948;2023-07-31T09:41:56;2.90;;;1.38;;
26540;SDS011;14206;50.202;10.948;2023-07-31T09:44:37;4.07;;;1.90;;
26540;SDS011;14206;50.202;10.948;2023-07-31T09:47:23;3.42;;;2.08;;
26540;SDS011;14206;50.202;10.948;2023-07-31T09:49:52;4.70;;;1.90;;
26540;SDS011;14206;50.202;10.948;2023-07-31T09:52:19;4.00;;;2.05;;
26540;SDS011;14206;50.202;10.948;2023-07-31T09:54:46;4.07;;;2.10;;
26540;SDS011;14206;50.202;10.948;2023-07-31T09:57:12;4.18;;;2.00;;
26540;SDS011;14206;50.202;10.948;2023-07-31T09:59:43;2.75;;;1.70;;
26540;SDS011;14206;50.202;10.948;2023-07-31T10:02:13;3.92;;;2.05;;
26540;SDS011;14206;50.202;10.948;2023-07-31T10:04:42;2.35;;;1.55;;
26540;SDS011;14206;50.202;10.948;2023-07-31T10:07:13;2.38;;;1.60;;
26540;SDS011;14206;50.202;10.948;2023-07-31T10:09:44;3.35;;;1.95;;
26540;SDS011;14206;50.202;10.948;2023-07-31T10:12:12;3.03;;;1.58;;
26540;SDS011;14206;50.202;10.948;2023-07-31T10:14:42;2.50;;;1.80;;
26540;SDS011;14206;50.202;10.948;2023-07-31T10:17:09;3.55;;;1.83;;
26540;SDS011;14206;50.202;10.948;2023-07-31T10:19:37;2.75;;;1.48;;
26540;SDS011;14206;50.202;10.948;2023-07-31T10:22:05;3.10;;;1.80;;
26540;SDS011;14206;50.202;10.948;2023-07-31T10:24:32;2.53;;;1.52;;
26540;SDS011;14206;50.202;10.948;2023-07-31T10:27:00;2.47;;;1.65;;
26540;SDS011;14206;50.202;10.948;2023-07-31T10:29:28;3.70;;;1.90;;
26540;SDS011;14206;50.202;10.948;2023-07-31T10:31:57;2.53;;;1.70;;
26540;SDS011;14206;50.202;10.948;2023-07-31T10:34:25;3.95;;;1.73;;
26540;SDS011;14206;50.202;10.948;2023-07-31T10:39:58;2.55;;;1.70;;
26540;SDS011;14206;50.202;10.948;2023-07-31T10:45:06;2.95;;;1.65;;
26540;SDS011;14206;50.202;10.948;2023-07-31T10:47:37;2.42;;;1.80;;
26540;SDS011;14206;50.202;10.948;2023-07-31T10:52:50;2.70;;;1.83;;
26540;SDS011;14206;50.202;10.948;2023-07-31T10:55:28;2.95;;;1.92;;
26540;SDS011;14206;50.202;10.948;2023-07-31T10:58:09;3.10;;;2.00;;
26540;SDS011;14206;50.202;10.948;2023-07-31T11:00:42;3.38;;;2.20;;
26540;SDS011;14206;50.202;10.948;2023-07-31T11:03:15;3.65;;;1.58;;
26540;SDS011;14206;50.202;10.948;2023-07-31T11:05:47;2.45;;;1.63;;
26540;SDS011;14206;50.202;10.948;2023-07-31T11:08:17;3.40;;;1.90;;
26540;SDS011;14206;50.202;10.948;2023-07-31T11:11:08;3.85;;;1.90;;
26540;SDS011;14206;50.202;10.948;2023-07-31T11:13:39;3.13;;;1.75;;
26540;SDS011;14206;50.202;10.948;2023-07-31T11:16:08;3.35;;;2.13;;
26540;SDS011;14206;50.202;10.948;2023-07-31T11:18:37;2.85;;;1.92;;
26540;SDS011;14206;50.202;10.948;2023-07-31T11:21:06;3.17;;;1.90;;
26540;SDS011;14206;50.202;10.948;2023-07-31T11:23:33;2.85;;;1.70;;
26540;SDS011;14206;50.202;10.948;2023-07-31T11:26:04;2.83;;;1.60;;
26540;SDS011;14206;50.202;10.948;2023-07-31T11:28:32;3.00;;;1.80;;
26540;SDS011;14206;50.202;10.948;2023-07-31T11:31:00;3.95;;;1.80;;
26540;SDS011;14206;50.202;10.948;2023-07-31T11:33:28;4.00;;;2.20;;
26540;SDS011;14206;50.202;10.948;2023-07-31T11:35:55;4.60;;;2.10;;
26540;SDS011;14206;50.202;10.948;2023-07-31T11:38:25;3.85;;;2.05;;
26540;SDS011;14206;50.202;10.948;2023-07-31T11:40:54;2.67;;;1.98;;
26540;SDS011;14206;50.202;10.948;2023-07-31T11:43:22;4.82;;;2.13;;
26540;SDS011;14206;50.202;10.948;2023-07-31T11:45:51;3.58;;;2.00;;
26540;SDS011;14206;50.202;10.948;2023-07-31T11:48:23;3.13;;;1.80;;
26540;SDS011;14206;50.202;10.948;2023-07-31T11:50:59;2.80;;;1.40;;
26540;SDS011;14206;50.202;10.948;2023-07-31T11:53:36;3.10;;;2.00;;
26540;SDS011;14206;50.202;10.948;2023-07-31T11:56:08;3.00;;;1.92;;
26540;SDS011;14206;50.202;10.948;2023-07-31T11:58:38;3.17;;;2.00;;
26540;SDS011;14206;50.202;10.948;2023-07-31T12:01:06;3.17;;;1.88;;
26540;SDS011;14206;50.202;10.948;2023-07-31T12:03:34;3.03;;;1.70;;
26540;SDS011;14206;50.202;10.948;2023-07-31T12:06:01;3.83;;;2.45;;
26540;SDS011;14206;50.202;10.948;2023-07-31T12:08:28;2.42;;;1.65;;
26540;SDS011;14206;50.202;10.948;2023-07-31T12:11:01;3.55;;;2.10;;
26540;SDS011;14206;50.202;10.948;2023-07-31T12:13:30;4.47;;;2.30;;
26540;SDS011;14206;50.202;10.948;2023-07-31T12:15:58;4.50;;;2.05;;
26540;SDS011;14206;50.202;10.948;2023-07-31T12:18:29;4.50;;;1.98;;
26540;SDS011;14206;50.202;10.948;2023-07-31T12:21:01;4.03;;;2.20;;
26540;SDS011;14206;50.202;10.948;2023-07-31T12:23:31;5.10;;;2.30;;
26540;SDS011;14206;50.202;10.948;2023-07-31T12:26:02;4.85;;;2.10;;
26540;SDS011;14206;50.202;10.948;2023-07-31T12:28:45;5.65;;;2.08;;
26540;SDS011;14206;50.202;10.948;2023-07-31T12:33:41;3.03;;;2.00;;
26540;SDS011;14206;50.202;10.948;2023-07-31T12:36:09;4.00;;;2.38;;
26540;SDS011;14206;50.202;10.948;2023-07-31T12:38:38;2.60;;;2.15;;
26540;SDS011;14206;50.202;10.948;2023-07-31T12:41:06;6.35;;;2.47;;
26540;SDS011;14206;50.202;10.948;2023-07-31T12:43:34;3.83;;;2.08;;
26540;SDS011;14206;50.202;10.948;2023-07-31T12:46:01;2.67;;;1.60;;
26540;SDS011;14206;50.202;10.948;2023-07-31T12:48:28;4.38;;;2.38;;
26540;SDS011;14206;50.202;10.948;2023-07-31T12:50:56;3.25;;;2.00;;
26540;SDS011;14206;50.202;10.948;2023-07-31T12:53:23;3.28;;;1.67;;
26540;SDS011;14206;50.202;10.948;2023-07-31T12:55:51;3.50;;;1.98;;
26540;SDS011;14206;50.202;10.948;2023-07-31T12:58:18;3.38;;;1.67;;
26540;SDS011;14206;50.202;10.948;2023-07-31T13:00:46;1.65;;;1.20;;
26540;SDS011;14206;50.202;10.948;2023-07-31T13:03:13;1.27;;;1.17;;
26540;SDS011;14206;50.202;10.948;2023-07-31T13:05:40;2.22;;;1.30;;
26540;SDS011;14206;50.202;10.948;2023-07-31T13:08:07;2.20;;;1.65;;
26540;SDS011;14206;50.202;10.948;2023-07-31T13:10:34;2.33;;;1.40;;
26540;SDS011;14206;50.202;10.948;2023-07-31T13:13:01;4.40;;;2.00;;
26540;SDS011;14206;50.202;10.948;2023-07-31T13:15:27;2.95;;;1.67;;
26540;SDS011;14206;50.202;10.948;2023-07-31T13:17:54;3.33;;;1.83;;
26540;SDS011;14206;50.202;10.948;2023-07-31T13:20:21;4.07;;;1.77;;
26540;SDS011;14206;50.202;10.948;2023-07-31T13:22:48;1.95;;;1.40;;
26540;SDS011;14206;50.202;10.948;2023-07-31T13:25:15;2.33;;;1.50;;
26540;SDS011;14206;50.202;10.948;2023-07-31T13:27:43;3.78;;;2.00;;
26540;SDS011;14206;50.202;10.948;2023-07-31T13:30:10;3.55;;;2.20;;
26540;SDS011;14206;50.202;10.948;2023-07-31T13:32:37;2.30;;;1.55;;
26540;SDS011;14206;50.202;10.948;2023-07-31T13:35:06;2.75;;;1.80;;
26540;SDS011;14206;50.202;10.948;2023-07-31T13:37:34;3.83;;;1.95;;
26540;SDS011;14206;50.202;10.948;2023-07-31T13:40:01;4.00;;;1.95;;
26540;SDS011;14206;50.202;10.948;2023-07-31T13:42:31;3.53;;;2.03;;
26540;SDS011;14206;50.202;10.948;2023-07-31T13:44:59;4.60;;;2.20;;
26540;SDS011;14206;50.202;10.948;2023-07-31T13:47:26;3.78;;;2.03;;
26540;SDS011;14206;50.202;10.948;2023-07-31T13:49:54;4.10;;;1.90;;
26540;SDS011;14206;50.202;10.948;2023-07-31T13:52:21;4.07;;;2.03;;
26540;SDS011;14206;50.202;10.948;2023-07-31T13:54:47;4.00;;;2.40;;
26540;SDS011;14206;50.202;10.948;2023-07-31T13:57:16;2.80;;;1.70;;
26540;SDS011;14206;50.202;10.948;2023-07-31T13:59:44;4.43;;;2.28;;
26540;SDS011;14206;50.202;10.948;2023-07-31T14:02:11;2.95;;;2.03;;
26540;SDS011;14206;50.202;10.948;2023-07-31T14:04:40;5.05;;;2.03;;
26540;SDS011;14206;50.202;10.948;2023-07-31T14:07:10;4.10;;;2.45;;
26540;SDS011;14206;50.202;10.948;2023-07-31T14:09:40;4.05;;;2.30;;
26540;SDS011;14206;50.202;10.948;2023-07-31T14:12:08;4.70;;;2.33;;
26540;SDS011;14206;50.202;10.948;2023-07-31T14:14:35;2.92;;;2.20;;
26540;SDS011;14206;50.202;10.948;2023-07-31T14:17:03;5.32;;;2.17;;
26540;SDS011;14206;50.202;10.948;2023-07-31T14:19:31;3.85;;;1.88;;
26540;SDS011;14206;50.202;10.948;2023-07-31T14:22:00;3.83;;;2.10;;
26540;SDS011;14206;50.202;10.948;2023-07-31T14:24:36;3.30;;;1.98;;
26540;SDS011;14206;50.202;10.948;2023-07-31T14:27:03;4.82;;;2.55;;
26540;SDS011;14206;50.202;10.948;2023-07-31T14:29:31;5.18;;;2.42;;
26540;SDS011;14206;50.202;10.948;2023-07-31T14:31:57;3.05;;;2.05;;
26540;SDS011;14206;50.202;10.948;2023-07-31T14:34:26;4.95;;;2.90;;
26540;SDS011;14206;50.202;10.948;2023-07-31T14:36:53;3.17;;;2.53;;
26540;SDS011;14206;50.202;10.948;2023-07-31T14:39:19;5.13;;;2.40;;
26540;SDS011;14206;50.202;10.948;2023-07-31T14:41:46;5.90;;;2.60;;
26540;SDS011;14206;50.202;10.948;2023-07-31T14:44:14;4.05;;;2.55;;
26540;SDS011;14206;50.202;10.948;2023-07-31T14:46:41;4.25;;;2.38;;
26540;SDS011;14206;50.202;10.948;2023-07-31T14:49:09;5.35;;;2.72;;
26540;SDS011;14206;50.202;10.948;2023-07-31T14:51:36;4.10;;;2.58;;
26540;SDS011;14206;50.202;10.948;2023-07-31T14:54:03;4.22;;;2.38;;
26540;SDS011;14206;50.202;10.948;2023-07-31T14:56:29;3.63;;;2.13;;